createdAt,value
2018-03-27T00:00:25.762Z,7.30
2018-03-27T00:01:25.659Z,8.80
2018-03-27T00:02:25.793Z,6.90
2018-03-27T00:03:25.443Z,7.50
2018-03-27T00:04:25.336Z,7.00
2018-03-27T00:05:25.236Z,7.50
2018-03-27T00:06:25.130Z,7.50
2018-03-27T00:07:25.027Z,11.00
2018-03-27T00:08:24.924Z,7.20
2018-03-27T00:09:24.820Z,7.70
2018-03-27T00:10:24.717Z,7.10
2018-03-27T00:11:24.613Z,8.20
2018-03-27T00:12:24.510Z,9.30
2018-03-27T00:13:24.395Z,7.80
2018-03-27T00:14:24.291Z,9.60
2018-03-27T00:15:24.187Z,8.60
2018-03-27T00:16:24.137Z,7.60
2018-03-27T00:17:23.981Z,7.60
2018-03-27T00:18:23.876Z,6.30
2018-03-27T00:19:23.773Z,7.30
2018-03-27T00:20:23.670Z,8.70
2018-03-27T00:21:23.570Z,8.10
2018-03-27T00:22:23.463Z,9.70
2018-03-27T00:23:23.360Z,7.70
2018-03-27T00:24:23.258Z,8.70
2018-03-27T00:25:23.153Z,6.80
2018-03-27T00:26:23.050Z,9.30
2018-03-27T00:27:22.935Z,7.80
2018-03-27T00:28:22.832Z,7.90
2018-03-27T00:29:22.729Z,9.90
2018-03-27T00:30:22.626Z,8.50
2018-03-27T00:31:22.521Z,9.50
2018-03-27T00:32:22.418Z,9.00
2018-03-27T00:33:22.315Z,8.70
2018-03-27T00:34:22.212Z,7.80
2018-03-27T00:35:22.109Z,7.00
2018-03-27T00:36:22.006Z,8.00
2018-03-27T00:37:22.152Z,6.80
2018-03-27T00:38:21.798Z,8.40
2018-03-27T00:39:21.695Z,7.30
2018-03-27T00:40:21.579Z,7.20
2018-03-27T00:41:21.475Z,8.00
2018-03-27T00:42:21.372Z,6.50
2018-03-27T00:43:21.269Z,7.40
2018-03-27T00:44:21.171Z,7.30
2018-03-27T00:45:21.062Z,8.30
2018-03-27T00:46:20.959Z,8.50
2018-03-27T00:47:20.856Z,6.40
2018-03-27T00:48:20.751Z,8.60
2018-03-27T00:49:20.649Z,8.20
2018-03-27T00:50:20.549Z,7.20
2018-03-27T00:51:20.442Z,7.80
2018-03-27T00:52:20.339Z,7.60
2018-03-27T00:53:20.224Z,7.60
2018-03-27T00:54:20.121Z,7.20
2018-03-27T00:55:20.019Z,8.80
2018-03-27T00:56:19.917Z,7.10
2018-03-27T00:57:19.811Z,7.70
2018-03-27T00:58:19.707Z,8.70
2018-03-27T00:59:19.603Z,7.10
2018-03-27T01:00:19.505Z,7.30
2018-03-27T01:01:19.399Z,7.30
2018-03-27T01:02:19.293Z,7.10
2018-03-27T01:03:19.190Z,7.10
2018-03-27T01:04:19.088Z,9.00
2018-03-27T01:05:18.973Z,7.30
2018-03-27T01:06:18.868Z,7.80
2018-03-27T01:07:18.764Z,7.30
2018-03-27T01:08:18.661Z,7.80
2018-03-27T01:09:18.557Z,7.50
2018-03-27T01:10:18.454Z,8.70
2018-03-27T01:11:18.350Z,7.40
2018-03-27T01:12:18.248Z,8.40
2018-03-27T01:13:18.144Z,7.70
2018-03-27T01:14:18.041Z,9.70
2018-03-27T01:15:17.937Z,9.10
2018-03-27T01:16:17.834Z,10.50
2018-03-27T01:17:18.031Z,11.60
2018-03-27T01:18:17.622Z,9.90
2018-03-27T01:19:17.517Z,9.00
2018-03-27T01:20:17.411Z,8.10
2018-03-27T01:21:17.305Z,10.00
2018-03-27T01:22:17.207Z,7.50
2018-03-27T01:23:17.099Z,9.10
2018-03-27T01:24:16.996Z,8.40
2018-03-27T01:25:16.892Z,9.40
2018-03-27T01:26:16.789Z,10.10
2018-03-27T01:27:16.686Z,9.40
2018-03-27T01:28:16.583Z,9.10
2018-03-27T01:29:16.479Z,9.50
2018-03-27T01:30:16.384Z,13.20
2018-03-27T01:31:16.264Z,9.30
2018-03-27T01:32:16.156Z,10.30
2018-03-27T01:33:16.053Z,10.90
2018-03-27T01:34:15.950Z,9.60
2018-03-27T01:35:15.847Z,9.60
2018-03-27T01:36:15.743Z,10.20
2018-03-27T01:37:15.639Z,11.30
2018-03-27T01:38:15.536Z,11.00
2018-03-27T01:39:15.433Z,10.50
2018-03-27T01:40:15.336Z,12.80
2018-03-27T01:41:15.230Z,10.20
2018-03-27T01:42:15.122Z,10.50
2018-03-27T01:43:15.009Z,11.10
2018-03-27T01:44:14.904Z,10.70
2018-03-27T01:45:14.801Z,10.30
2018-03-27T01:46:14.699Z,11.10
2018-03-27T01:47:14.596Z,11.50
2018-03-27T01:48:14.490Z,12.20
2018-03-27T01:49:14.390Z,12.00
2018-03-27T01:50:14.311Z,11.90
2018-03-27T01:51:14.181Z,12.90
2018-03-27T01:52:14.066Z,12.00
2018-03-27T01:53:13.967Z,12.90
2018-03-27T01:54:13.858Z,12.20
2018-03-27T01:55:13.768Z,11.80
2018-03-27T01:56:13.651Z,12.20
2018-03-27T01:57:13.849Z,12.70
2018-03-27T01:58:13.449Z,12.90
2018-03-27T01:59:13.342Z,11.30
2018-03-27T02:00:13.238Z,11.60
2018-03-27T02:01:13.136Z,14.20
2018-03-27T02:02:13.032Z,13.20
2018-03-27T02:03:12.917Z,14.60
2018-03-27T02:04:12.813Z,13.00
2018-03-27T02:05:12.712Z,11.10
2018-03-27T02:06:12.607Z,13.90
2018-03-27T02:07:12.504Z,12.30
2018-03-27T02:08:12.400Z,15.10
2018-03-27T02:09:12.297Z,13.10
2018-03-27T02:10:12.194Z,12.40
2018-03-27T02:11:12.090Z,14.80
2018-03-27T02:12:11.974Z,15.50
2018-03-27T02:13:11.870Z,12.70
2018-03-27T02:14:11.766Z,14.30
2018-03-27T02:15:11.663Z,15.60
2018-03-27T02:16:11.560Z,15.00
2018-03-27T02:17:11.457Z,13.60
2018-03-27T02:18:11.353Z,13.90
2018-03-27T02:19:11.250Z,14.90
2018-03-27T02:20:11.148Z,15.30
2018-03-27T02:21:11.044Z,16.40
2018-03-27T02:22:10.942Z,17.80
2018-03-27T02:23:10.827Z,16.40
2018-03-27T02:24:10.722Z,16.20
2018-03-27T02:25:10.619Z,16.80
2018-03-27T02:26:10.516Z,16.90
2018-03-27T02:27:10.411Z,18.40
2018-03-27T02:28:10.308Z,17.90
2018-03-27T02:29:10.204Z,16.50
2018-03-27T02:30:10.103Z,17.30
2018-03-27T02:31:09.999Z,18.50
2018-03-27T02:32:09.884Z,15.50
2018-03-27T02:33:09.780Z,16.20
2018-03-27T02:34:09.680Z,15.60
2018-03-27T02:35:09.574Z,19.30
2018-03-27T02:36:09.468Z,16.30
2018-03-27T02:37:09.366Z,14.30
2018-03-27T02:38:09.262Z,15.20
2018-03-27T02:39:09.161Z,14.70
2018-03-27T02:40:09.060Z,14.40
2018-03-27T02:41:08.955Z,14.90
2018-03-27T02:42:08.850Z,16.30
2018-03-27T02:43:08.745Z,15.20
2018-03-27T02:44:08.632Z,15.20
2018-03-27T02:45:08.528Z,16.90
2018-03-27T02:46:08.424Z,13.40
2018-03-27T02:47:08.320Z,13.00
2018-03-27T02:48:08.217Z,16.00
2018-03-27T02:49:08.115Z,14.80
2018-03-27T02:50:08.010Z,15.80
2018-03-27T02:51:07.907Z,16.10
2018-03-27T02:52:07.811Z,14.60
2018-03-27T02:53:07.700Z,14.40
2018-03-27T02:54:07.589Z,14.40
2018-03-27T02:55:07.481Z,16.20
2018-03-27T02:56:07.378Z,13.60
2018-03-27T02:57:07.284Z,12.90
2018-03-27T02:58:07.171Z,14.50
2018-03-27T02:59:07.069Z,15.00
2018-03-27T03:00:06.966Z,15.80
2018-03-27T03:01:06.873Z,14.80
2018-03-27T03:02:06.757Z,12.80
2018-03-27T03:03:06.655Z,15.90
2018-03-27T03:04:06.551Z,13.80
2018-03-27T03:05:06.449Z,13.40
2018-03-27T03:06:06.334Z,14.40
2018-03-27T03:07:06.229Z,15.40
2018-03-27T03:08:06.125Z,20.50
2018-03-27T03:09:06.022Z,14.90
2018-03-27T03:10:05.921Z,13.90
2018-03-27T03:11:05.819Z,15.20
2018-03-27T03:12:05.713Z,13.90
2018-03-27T03:13:05.610Z,13.70
2018-03-27T03:14:05.506Z,15.20
2018-03-27T03:15:05.403Z,13.80
2018-03-27T03:16:05.298Z,12.40
2018-03-27T03:17:05.184Z,14.30
2018-03-27T03:18:05.080Z,13.80
2018-03-27T03:19:05.026Z,12.40
2018-03-27T03:20:04.876Z,13.50
2018-03-27T03:21:04.770Z,15.60
2018-03-27T03:22:04.966Z,14.60
2018-03-27T03:23:04.562Z,15.40
2018-03-27T03:24:04.459Z,12.80
2018-03-27T03:25:04.355Z,12.80
2018-03-27T03:26:04.253Z,14.90
2018-03-27T03:27:04.151Z,13.80
2018-03-27T03:28:04.034Z,16.30
2018-03-27T03:29:03.930Z,12.10
2018-03-27T03:30:03.833Z,13.70
2018-03-27T03:31:03.730Z,16.60
2018-03-27T03:32:03.623Z,16.20
2018-03-27T03:33:03.518Z,13.90
2018-03-27T03:34:03.416Z,14.00
2018-03-27T03:35:03.314Z,14.10
2018-03-27T03:36:03.195Z,14.30
2018-03-27T03:37:03.091Z,15.00
2018-03-27T03:38:02.988Z,16.90
2018-03-27T03:39:02.887Z,15.70
2018-03-27T03:40:02.781Z,15.30
2018-03-27T03:41:02.678Z,14.30
2018-03-27T03:42:02.575Z,15.20
2018-03-27T03:43:02.460Z,15.40
2018-03-27T03:44:02.356Z,15.40
2018-03-27T03:45:02.253Z,17.50
2018-03-27T03:46:02.149Z,16.30
2018-03-27T03:47:02.046Z,18.70
2018-03-27T03:48:01.944Z,18.70
2018-03-27T03:49:01.828Z,17.00
2018-03-27T03:50:01.723Z,21.70
2018-03-27T03:51:01.621Z,19.70
2018-03-27T03:52:01.816Z,17.70
2018-03-27T03:53:01.439Z,23.20
2018-03-27T03:54:01.309Z,20.10
2018-03-27T03:55:01.206Z,21.70
2018-03-27T03:56:01.092Z,23.20
2018-03-27T03:57:00.989Z,24.30
2018-03-27T03:58:00.885Z,22.80
2018-03-27T03:59:00.781Z,29.10
2018-03-27T04:00:00.678Z,28.10
2018-03-27T04:01:00.563Z,25.50
2018-03-27T04:02:00.460Z,27.90
2018-03-27T04:03:00.357Z,30.60
2018-03-27T04:04:00.251Z,29.60
2018-03-27T04:05:00.150Z,31.90
2018-03-27T04:06:00.045Z,32.10
2018-03-27T04:06:59.935Z,30.60
2018-03-27T04:07:59.826Z,33.90
2018-03-27T04:08:59.723Z,34.30
2018-03-27T04:09:59.621Z,38.10
2018-03-27T04:10:59.517Z,36.40
2018-03-27T04:11:59.400Z,37.90
2018-03-27T04:12:59.296Z,43.20
2018-03-27T04:13:59.193Z,40.70
2018-03-27T04:14:59.097Z,42.50
2018-03-27T04:15:58.976Z,43.60
2018-03-27T04:16:58.871Z,44.20
2018-03-27T04:17:58.769Z,45.00
2018-03-27T04:18:58.665Z,47.30
2018-03-27T04:19:58.564Z,50.00
2018-03-27T04:20:58.446Z,47.40
2018-03-27T04:21:58.343Z,46.40
2018-03-27T04:22:58.239Z,56.20
2018-03-27T04:23:58.135Z,48.70
2018-03-27T04:24:58.025Z,53.50
2018-03-27T04:25:57.916Z,54.30
2018-03-27T04:26:57.814Z,54.50
2018-03-27T04:27:57.710Z,56.60
2018-03-27T04:28:57.607Z,54.60
2018-03-27T04:29:57.502Z,54.70
2018-03-27T04:30:57.386Z,59.70
2018-03-27T04:31:57.284Z,54.70
2018-03-27T04:32:57.182Z,55.00
2018-03-27T04:33:57.064Z,66.00
2018-03-27T04:34:56.961Z,60.30
2018-03-27T04:35:56.859Z,70.70
2018-03-27T04:36:56.755Z,62.40
2018-03-27T04:37:56.639Z,66.60
2018-03-27T04:38:56.535Z,69.30
2018-03-27T04:39:56.431Z,63.00
2018-03-27T04:40:56.329Z,65.00
2018-03-27T04:41:56.218Z,62.00
2018-03-27T04:42:56.110Z,61.50
2018-03-27T04:43:56.007Z,62.50
2018-03-27T04:44:55.904Z,68.00
2018-03-27T04:45:55.788Z,69.30
2018-03-27T04:46:55.684Z,74.30
2018-03-27T04:47:55.580Z,67.70
2018-03-27T04:48:55.478Z,68.30
2018-03-27T04:49:55.363Z,73.10
2018-03-27T04:50:55.259Z,69.60
2018-03-27T04:51:55.156Z,72.20
2018-03-27T04:52:55.051Z,72.50
2018-03-27T04:53:54.936Z,75.80
2018-03-27T04:54:54.832Z,79.80
2018-03-27T04:55:54.728Z,82.10
2018-03-27T04:56:54.625Z,78.80
2018-03-27T04:57:54.511Z,82.20
2018-03-27T04:58:54.408Z,85.20
2018-03-27T04:59:54.307Z,82.20
2018-03-27T05:00:54.201Z,85.40
2018-03-27T05:01:54.083Z,91.30
2018-03-27T05:02:53.980Z,86.60
2018-03-27T05:03:53.877Z,83.00
2018-03-27T05:04:53.762Z,85.90
2018-03-27T05:05:53.659Z,88.80
2018-03-27T05:06:53.556Z,85.30
2018-03-27T05:07:53.440Z,84.30
2018-03-27T05:08:53.336Z,92.00
2018-03-27T05:09:53.232Z,104.30
2018-03-27T05:10:53.130Z,99.40
2018-03-27T05:11:53.014Z,96.80
2018-03-27T05:12:52.911Z,95.10
2018-03-27T05:13:52.808Z,98.60
2018-03-27T05:14:52.709Z,97.10
2018-03-27T05:15:52.587Z,95.70
2018-03-27T05:16:52.484Z,100.30
2018-03-27T05:17:52.381Z,94.30
2018-03-27T05:18:52.278Z,96.30
2018-03-27T05:19:52.165Z,98.30
2018-03-27T05:20:52.060Z,97.70
2018-03-27T05:21:51.956Z,101.40
2018-03-27T05:22:51.840Z,95.90
2018-03-27T05:23:51.736Z,100.90
2018-03-27T05:24:51.633Z,102.70
2018-03-27T05:25:51.531Z,94.60
2018-03-27T05:26:51.419Z,107.50
2018-03-27T05:27:51.312Z,100.10
2018-03-27T05:28:51.207Z,105.50
2018-03-27T05:29:51.105Z,100.00
2018-03-27T05:30:51.001Z,105.40
2018-03-27T05:31:50.885Z,105.80
2018-03-27T05:32:50.831Z,108.40
2018-03-27T05:33:50.666Z,107.80
2018-03-27T05:34:50.562Z,111.20
2018-03-27T05:35:50.459Z,103.40
2018-03-27T05:36:50.356Z,100.10
2018-03-27T05:37:50.240Z,91.30
2018-03-27T05:38:50.138Z,92.00
2018-03-27T05:39:50.034Z,80.80
2018-03-27T05:40:49.931Z,67.50
2018-03-27T05:41:50.066Z,76.90
2018-03-27T05:42:49.711Z,63.40
2018-03-27T05:43:49.607Z,67.80
2018-03-27T05:44:49.505Z,64.30
2018-03-27T05:45:49.390Z,57.40
2018-03-27T05:46:49.284Z,60.60
2018-03-27T05:47:49.201Z,54.80
2018-03-27T05:48:49.091Z,53.10
2018-03-27T05:49:48.974Z,53.40
2018-03-27T05:50:48.859Z,49.10
2018-03-27T05:51:48.771Z,49.60
2018-03-27T05:52:48.652Z,47.40
2018-03-27T05:53:48.550Z,41.90
2018-03-27T05:54:48.435Z,46.50
2018-03-27T05:55:48.373Z,43.10
2018-03-27T05:56:48.231Z,44.30
2018-03-27T05:57:48.124Z,42.40
2018-03-27T05:58:48.020Z,41.30
2018-03-27T05:59:47.907Z,38.70
2018-03-27T06:00:47.802Z,42.70
2018-03-27T06:01:47.998Z,37.60
2018-03-27T06:02:47.595Z,40.80
2018-03-27T06:03:47.492Z,38.20
2018-03-27T06:04:47.389Z,36.80
2018-03-27T06:05:47.288Z,38.10
2018-03-27T06:06:47.169Z,35.80
2018-03-27T06:07:47.065Z,36.30
2018-03-27T06:08:46.962Z,33.60
2018-03-27T06:09:46.858Z,38.00
2018-03-27T06:10:46.755Z,39.80
2018-03-27T06:11:46.640Z,36.90
2018-03-27T06:12:46.536Z,39.30
2018-03-27T06:13:46.433Z,33.30
2018-03-27T06:14:46.329Z,31.80
2018-03-27T06:15:46.227Z,35.40
2018-03-27T06:16:46.124Z,35.30
2018-03-27T06:17:46.009Z,31.10
2018-03-27T06:18:45.903Z,29.20
2018-03-27T06:19:45.800Z,33.60
2018-03-27T06:20:45.698Z,30.60
2018-03-27T06:21:45.843Z,29.60
2018-03-27T06:22:45.492Z,29.40
2018-03-27T06:23:45.386Z,29.40
2018-03-27T06:24:45.284Z,29.80
2018-03-27T06:25:45.168Z,29.90
2018-03-27T06:26:45.065Z,28.30
2018-03-27T06:27:45.058Z,29.90
2018-03-27T06:28:44.862Z,27.50
2018-03-27T06:29:44.761Z,28.50
2018-03-27T06:30:44.652Z,30.40
2018-03-27T06:31:44.549Z,28.20
2018-03-27T06:32:44.445Z,32.20
2018-03-27T06:33:44.342Z,26.50
2018-03-27T06:34:44.239Z,28.20
2018-03-27T06:35:44.124Z,27.30
2018-03-27T06:36:44.019Z,33.00
2018-03-27T06:37:43.929Z,29.20
2018-03-27T06:38:43.811Z,28.50
2018-03-27T06:39:43.723Z,30.00
2018-03-27T06:40:43.605Z,27.00
2018-03-27T06:41:43.502Z,26.80
2018-03-27T06:42:43.401Z,30.20
2018-03-27T06:43:43.295Z,27.60
2018-03-27T06:44:43.192Z,27.40
2018-03-27T06:45:43.089Z,26.10
2018-03-27T06:46:42.986Z,28.30
2018-03-27T06:47:42.931Z,25.90
2018-03-27T06:48:42.779Z,25.00
2018-03-27T06:49:42.675Z,25.90
2018-03-27T06:50:42.577Z,27.20
2018-03-27T06:51:42.458Z,28.90
2018-03-27T06:52:42.354Z,26.00
2018-03-27T06:53:42.251Z,29.00
2018-03-27T06:54:42.150Z,25.60
2018-03-27T06:55:42.044Z,25.80
2018-03-27T06:56:41.940Z,25.40
2018-03-27T06:57:41.837Z,27.30
2018-03-27T06:58:41.734Z,24.20
2018-03-27T06:59:41.631Z,35.20
2018-03-27T07:00:41.527Z,90.20
2018-03-27T07:01:41.425Z,25.50
2018-03-27T07:02:41.321Z,22.20
2018-03-27T07:03:41.218Z,24.00
2018-03-27T07:04:41.113Z,24.50
2018-03-27T07:05:41.063Z,23.50
2018-03-27T07:06:40.937Z,21.50
2018-03-27T07:07:40.804Z,23.10
2018-03-27T07:08:40.701Z,20.10
2018-03-27T07:09:40.598Z,22.90
2018-03-27T07:10:40.595Z,22.00
2018-03-27T07:11:40.391Z,19.90
2018-03-27T07:12:40.318Z,23.00
2018-03-27T07:13:40.237Z,23.20
2018-03-27T07:14:40.093Z,17.60
2018-03-27T07:15:39.989Z,18.10
2018-03-27T07:16:39.887Z,17.70
2018-03-27T07:17:39.811Z,17.30
2018-03-27T07:18:39.679Z,18.40
2018-03-27T07:19:39.576Z,19.20
2018-03-27T07:20:39.473Z,17.10
2018-03-27T07:21:39.370Z,14.30
2018-03-27T07:22:39.266Z,16.70
2018-03-27T07:23:39.162Z,16.20
2018-03-27T07:24:39.059Z,17.50
2018-03-27T07:25:38.957Z,17.30
2018-03-27T07:26:38.867Z,17.50
2018-03-27T07:27:38.765Z,16.40
2018-03-27T07:28:38.659Z,15.90
2018-03-27T07:29:38.557Z,16.40
2018-03-27T07:30:38.455Z,14.20
2018-03-27T07:31:38.350Z,17.10
2018-03-27T07:32:38.247Z,15.30
2018-03-27T07:33:38.144Z,16.50
2018-03-27T07:34:38.052Z,16.30
2018-03-27T07:35:37.948Z,16.70
2018-03-27T07:36:37.845Z,15.50
2018-03-27T07:37:37.742Z,14.50
2018-03-27T07:38:37.651Z,15.80
2018-03-27T07:39:37.535Z,15.70
2018-03-27T07:40:37.434Z,14.70
2018-03-27T07:41:37.342Z,15.40
2018-03-27T07:42:37.242Z,13.70
2018-03-27T07:43:37.137Z,16.20
2018-03-27T07:44:37.033Z,15.50
2018-03-27T07:45:36.928Z,15.50
2018-03-27T07:46:36.850Z,15.20
2018-03-27T07:47:36.733Z,16.70
2018-03-27T07:48:36.630Z,16.20
2018-03-27T07:49:36.533Z,75.70
2018-03-27T07:50:36.423Z,30.40
2018-03-27T07:51:36.320Z,19.40
2018-03-27T07:52:36.230Z,18.30
2018-03-27T07:53:36.127Z,16.00
2018-03-27T07:54:36.024Z,16.70
2018-03-27T07:55:35.920Z,15.50
2018-03-27T07:56:35.818Z,16.60
2018-03-27T07:57:35.714Z,17.40
2018-03-27T07:58:35.621Z,16.50
2018-03-27T07:59:35.518Z,16.20
2018-03-27T08:00:35.415Z,15.90
2018-03-27T08:01:35.312Z,14.20
2018-03-27T08:02:35.209Z,21.40
2018-03-27T08:03:35.137Z,16.10
2018-03-27T08:04:35.016Z,15.60
2018-03-27T08:05:34.912Z,16.40
2018-03-27T08:06:34.808Z,15.70
2018-03-27T08:07:34.706Z,15.20
2018-03-27T08:08:34.647Z,15.50
2018-03-27T08:09:34.510Z,17.60
2018-03-27T08:10:34.411Z,14.90
2018-03-27T08:11:34.304Z,29.70
2018-03-27T08:12:34.201Z,27.60
2018-03-27T08:13:34.097Z,20.90
2018-03-27T08:14:33.996Z,15.00
2018-03-27T08:15:33.905Z,15.70
2018-03-27T08:16:33.801Z,13.80
2018-03-27T08:17:33.697Z,14.10
2018-03-27T08:18:33.599Z,14.90
2018-03-27T08:19:33.490Z,16.20
2018-03-27T08:20:33.399Z,14.40
2018-03-27T08:21:33.296Z,15.10
2018-03-27T08:22:33.192Z,16.50
2018-03-27T08:23:33.091Z,14.40
2018-03-27T08:24:32.990Z,17.80
2018-03-27T08:25:32.883Z,15.70
2018-03-27T08:26:32.792Z,15.30
2018-03-27T08:27:32.710Z,15.60
2018-03-27T08:28:32.586Z,15.20
2018-03-27T08:29:32.481Z,17.50
2018-03-27T08:30:32.380Z,15.00
2018-03-27T08:31:32.277Z,15.30
2018-03-27T08:32:32.184Z,15.50
2018-03-27T08:33:32.127Z,14.70
2018-03-27T08:34:31.991Z,14.00
2018-03-27T08:35:31.874Z,15.50
2018-03-27T08:36:31.773Z,16.10
2018-03-27T08:37:31.667Z,15.20
2018-03-27T08:38:31.566Z,15.40
2018-03-27T08:39:31.476Z,18.60
2018-03-27T08:40:31.372Z,14.30
2018-03-27T08:41:31.269Z,14.80
2018-03-27T08:42:31.168Z,14.50
2018-03-27T08:43:31.062Z,14.40
2018-03-27T08:44:30.957Z,12.60
2018-03-27T08:45:30.865Z,13.40
2018-03-27T08:46:30.762Z,12.40
2018-03-27T08:47:30.660Z,13.00
2018-03-27T08:48:30.556Z,12.90
2018-03-27T08:49:30.452Z,13.00
2018-03-27T08:50:30.351Z,13.10
2018-03-27T08:51:30.259Z,13.60
2018-03-27T08:52:30.157Z,13.70
2018-03-27T08:53:30.052Z,13.30
2018-03-27T08:54:29.950Z,12.40
2018-03-27T08:55:29.849Z,12.10
2018-03-27T08:56:29.748Z,13.00
2018-03-27T08:57:29.651Z,11.30
2018-03-27T08:58:29.548Z,12.70
2018-03-27T08:59:29.445Z,12.70
2018-03-27T09:00:29.341Z,11.10
2018-03-27T09:01:29.238Z,12.60
2018-03-27T09:02:29.135Z,13.30
2018-03-27T09:03:29.046Z,13.60
2018-03-27T09:04:28.942Z,11.50
2018-03-27T09:05:28.838Z,11.90
2018-03-27T09:06:28.734Z,14.50
2018-03-27T09:07:28.631Z,15.10
2018-03-27T09:08:28.528Z,12.60
2018-03-27T09:09:28.429Z,12.90
2018-03-27T09:10:28.333Z,14.40
2018-03-27T09:11:28.230Z,12.80
2018-03-27T09:12:28.128Z,13.50
2018-03-27T09:13:28.023Z,13.60
2018-03-27T09:14:27.919Z,12.00
2018-03-27T09:15:27.817Z,12.90
2018-03-27T09:16:27.732Z,11.90
2018-03-27T09:17:27.624Z,11.90
2018-03-27T09:18:27.520Z,11.50
2018-03-27T09:19:27.417Z,12.30
2018-03-27T09:20:27.313Z,11.20
2018-03-27T09:21:27.210Z,12.20
2018-03-27T09:22:27.119Z,12.20
2018-03-27T09:23:27.016Z,12.90
2018-03-27T09:24:26.913Z,12.00
2018-03-27T09:25:26.808Z,11.50
2018-03-27T09:26:26.707Z,11.10
2018-03-27T09:27:26.617Z,12.90
2018-03-27T09:28:26.512Z,9.60
2018-03-27T09:29:26.408Z,10.40
2018-03-27T09:30:26.306Z,11.00
2018-03-27T09:31:26.235Z,12.10
2018-03-27T09:32:26.111Z,11.30
2018-03-27T09:33:26.007Z,10.90
2018-03-27T09:34:25.906Z,12.60
2018-03-27T09:35:25.801Z,10.10
2018-03-27T09:36:25.710Z,9.20
2018-03-27T09:37:25.607Z,10.50
2018-03-27T09:38:25.504Z,10.40
2018-03-27T09:39:25.412Z,9.60
2018-03-27T09:40:25.308Z,8.80
2018-03-27T09:41:25.205Z,9.70
2018-03-27T09:42:25.103Z,9.80
2018-03-27T09:43:25.017Z,8.50
2018-03-27T09:44:24.909Z,10.10
2018-03-27T09:45:24.805Z,8.70
2018-03-27T09:46:24.714Z,8.20
2018-03-27T09:47:24.610Z,9.30
2018-03-27T09:48:24.508Z,8.90
2018-03-27T09:49:24.405Z,9.80
2018-03-27T09:50:24.314Z,10.10
2018-03-27T09:51:24.210Z,9.30
2018-03-27T09:52:24.107Z,7.90
2018-03-27T09:53:24.015Z,9.30
2018-03-27T09:54:23.912Z,8.80
2018-03-27T09:55:23.809Z,7.60
2018-03-27T09:56:23.720Z,10.00
2018-03-27T09:57:23.616Z,7.60
2018-03-27T09:58:23.576Z,8.30
2018-03-27T09:59:23.424Z,8.50
2018-03-27T10:00:23.317Z,7.10
2018-03-27T10:01:23.228Z,7.80
2018-03-27T10:02:23.124Z,6.50
2018-03-27T10:03:23.021Z,7.10
2018-03-27T10:04:22.929Z,9.10
2018-03-27T10:05:22.825Z,6.70
2018-03-27T10:06:22.736Z,6.50
2018-03-27T10:07:22.633Z,6.50
2018-03-27T10:08:22.529Z,6.20
2018-03-27T10:09:22.450Z,6.80
2018-03-27T10:10:22.335Z,7.40
2018-03-27T10:11:22.244Z,6.50
2018-03-27T10:12:22.140Z,7.50
2018-03-27T10:13:22.050Z,8.00
2018-03-27T10:14:21.946Z,9.70
2018-03-27T10:15:21.856Z,7.90
2018-03-27T10:16:21.753Z,8.70
2018-03-27T10:17:21.661Z,7.40
2018-03-27T10:18:21.557Z,8.00
2018-03-27T10:19:21.455Z,7.10
2018-03-27T10:20:21.364Z,8.10
2018-03-27T10:21:21.261Z,7.50
2018-03-27T10:22:21.169Z,7.20
2018-03-27T10:23:21.066Z,9.40
2018-03-27T10:24:20.979Z,7.80
2018-03-27T10:25:20.872Z,7.60
2018-03-27T10:26:20.780Z,7.40
2018-03-27T10:27:20.704Z,8.00
2018-03-27T10:28:20.588Z,8.60
2018-03-27T10:29:20.485Z,6.80
2018-03-27T10:30:20.382Z,6.70
2018-03-27T10:31:20.289Z,7.30
2018-03-27T10:32:20.186Z,5.80
2018-03-27T10:33:20.096Z,6.60
2018-03-27T10:34:19.994Z,9.70
2018-03-27T10:35:19.902Z,7.00
2018-03-27T10:36:19.797Z,8.00
2018-03-27T10:37:19.708Z,6.90
2018-03-27T10:38:19.605Z,6.20
2018-03-27T10:39:19.501Z,7.50
2018-03-27T10:40:19.411Z,6.60
2018-03-27T10:41:19.306Z,6.60
2018-03-27T10:42:19.225Z,6.60
2018-03-27T10:43:19.113Z,6.00
2018-03-27T10:44:19.022Z,5.90
2018-03-27T10:45:18.919Z,6.40
2018-03-27T10:46:18.827Z,6.10
2018-03-27T10:47:18.724Z,7.00
2018-03-27T10:48:18.633Z,6.20
2018-03-27T10:49:18.532Z,6.50
2018-03-27T10:50:18.440Z,7.90
2018-03-27T10:51:18.336Z,6.10
2018-03-27T10:52:18.245Z,6.40
2018-03-27T10:53:18.141Z,7.10
2018-03-27T10:54:18.051Z,6.80
2018-03-27T10:55:17.948Z,6.80
2018-03-27T10:56:17.856Z,8.40
2018-03-27T10:57:17.753Z,7.70
2018-03-27T10:58:17.666Z,7.00
2018-03-27T10:59:17.560Z,7.30
2018-03-27T11:00:17.468Z,6.70
2018-03-27T11:01:17.364Z,6.70
2018-03-27T11:02:17.276Z,6.50
2018-03-27T11:03:17.172Z,7.20
2018-03-27T11:04:17.080Z,6.80
2018-03-27T11:05:16.980Z,8.30
2018-03-27T11:06:16.888Z,7.40
2018-03-27T11:07:16.795Z,7.40
2018-03-27T11:08:16.693Z,8.70
2018-03-27T11:09:16.601Z,6.70
2018-03-27T11:10:16.498Z,7.10
2018-03-27T11:11:16.407Z,7.30
2018-03-27T11:12:16.304Z,9.30
2018-03-27T11:13:16.214Z,7.20
2018-03-27T11:14:16.136Z,7.30
2018-03-27T11:15:16.018Z,6.80
2018-03-27T11:16:15.929Z,7.80
2018-03-27T11:17:15.826Z,7.10
2018-03-27T11:18:15.733Z,8.50
2018-03-27T11:19:15.632Z,6.20
2018-03-27T11:20:15.541Z,10.20
2018-03-27T11:21:15.453Z,6.10
2018-03-27T11:22:15.407Z,9.20
2018-03-27T11:23:15.257Z,7.70
2018-03-27T11:24:15.152Z,6.70
2018-03-27T11:25:15.061Z,6.40
2018-03-27T11:26:14.959Z,6.50
2018-03-27T11:27:14.870Z,9.10
2018-03-27T11:28:14.776Z,8.30
2018-03-27T11:29:14.680Z,8.70
2018-03-27T11:30:14.582Z,7.50
2018-03-27T11:31:14.479Z,6.70
2018-03-27T11:32:14.387Z,8.30
2018-03-27T11:33:14.284Z,7.60
2018-03-27T11:34:14.194Z,8.40
2018-03-27T11:35:14.091Z,7.40
2018-03-27T11:36:13.999Z,9.10
2018-03-27T11:37:13.898Z,10.50
2018-03-27T11:38:13.805Z,7.40
2018-03-27T11:39:13.703Z,7.40
2018-03-27T11:40:13.611Z,7.20
2018-03-27T11:41:13.509Z,8.80
2018-03-27T11:42:13.417Z,7.70
2018-03-27T11:43:13.327Z,8.00
2018-03-27T11:44:13.228Z,7.60
2018-03-27T11:45:13.120Z,8.10
2018-03-27T11:46:13.029Z,8.30
2018-03-27T11:47:12.926Z,8.50
2018-03-27T11:48:12.834Z,8.80
2018-03-27T11:49:12.731Z,7.40
2018-03-27T11:50:12.641Z,9.70
2018-03-27T11:51:12.538Z,8.20
2018-03-27T11:52:12.445Z,9.90
2018-03-27T11:53:12.343Z,10.20
2018-03-27T11:54:12.240Z,9.80
2018-03-27T11:55:12.152Z,6.80
2018-03-27T11:56:12.051Z,7.00
2018-03-27T11:57:11.954Z,6.70
2018-03-27T11:58:11.854Z,7.50
2018-03-27T11:59:11.761Z,9.40
2018-03-27T12:00:11.667Z,9.30
2018-03-27T12:01:11.816Z,7.30
2018-03-27T12:02:11.463Z,8.30
2018-03-27T12:03:11.360Z,8.20
2018-03-27T12:04:11.270Z,6.90
2018-03-27T12:05:11.166Z,7.60
2018-03-27T12:06:11.075Z,9.30
2018-03-27T12:07:10.971Z,7.30
2018-03-27T12:08:10.869Z,8.20
2018-03-27T12:09:10.778Z,8.40
2018-03-27T12:10:10.674Z,7.90
2018-03-27T12:11:10.583Z,7.80
2018-03-27T12:12:10.481Z,8.70
2018-03-27T12:13:10.381Z,7.30
2018-03-27T12:14:10.286Z,7.80
2018-03-27T12:15:10.183Z,7.40
2018-03-27T12:16:10.092Z,8.10
2018-03-27T12:17:09.988Z,6.90
2018-03-27T12:18:09.899Z,9.90
2018-03-27T12:19:09.796Z,7.00
2018-03-27T12:20:09.691Z,8.00
2018-03-27T12:21:09.600Z,8.70
2018-03-27T12:22:09.498Z,7.80
2018-03-27T12:23:09.406Z,7.90
2018-03-27T12:24:09.303Z,8.80
2018-03-27T12:25:09.202Z,7.10
2018-03-27T12:26:09.122Z,6.40
2018-03-27T12:27:09.004Z,10.20
2018-03-27T12:28:08.915Z,7.10
2018-03-27T12:29:08.811Z,7.40
2018-03-27T12:30:08.719Z,8.30
2018-03-27T12:31:08.617Z,7.60
2018-03-27T12:32:08.515Z,9.30
2018-03-27T12:33:08.423Z,6.90
2018-03-27T12:34:08.321Z,7.60
2018-03-27T12:35:08.228Z,6.40
2018-03-27T12:36:08.130Z,6.60
2018-03-27T12:37:08.035Z,9.40
2018-03-27T12:38:07.931Z,8.10
2018-03-27T12:39:07.841Z,7.80
2018-03-27T12:40:07.736Z,8.40
2018-03-27T12:41:07.648Z,7.50
2018-03-27T12:42:07.543Z,8.20
2018-03-27T12:43:07.453Z,6.90
2018-03-27T12:44:07.349Z,8.00
2018-03-27T12:45:07.260Z,7.40
2018-03-27T12:46:07.159Z,10.00
2018-03-27T12:47:07.063Z,10.40
2018-03-27T12:48:06.960Z,7.30
2018-03-27T12:49:06.869Z,7.00
2018-03-27T12:50:06.768Z,9.00
2018-03-27T12:51:06.663Z,7.70
2018-03-27T12:52:06.572Z,7.70
2018-03-27T12:53:06.468Z,9.80
2018-03-27T12:54:06.379Z,8.10
2018-03-27T12:55:06.276Z,7.20
2018-03-27T12:56:06.183Z,7.30
2018-03-27T12:57:06.085Z,9.00
2018-03-27T12:58:05.990Z,10.40
2018-03-27T12:59:05.929Z,9.00
2018-03-27T13:00:05.795Z,7.70